Time;durP1;ratioP1;P1;durP2;ratioP2;P2;SDS_P1;SDS_P2;PMS_P1;PMS_P2;Temp;Humidity;BMP_temperature;BMP_pressure;BME280_temperature;BME280_humidity;BME280_pressure;Samples;Min_cycle;Max_cycle;Signal;HPM_P1;HPM_P2
2021/07/13 00:01:54;;;;;;;16.95;15.07;;;716.80;2432.00;;;;;;5092910;28;20051;-72
2021/07/13 00:04:20;;;;;;;15.70;13.95;;;692.10;2406.40;;;;;;5111384;28;20080;-72
2021/07/13 00:06:46;;;;;;;17.05;14.57;;;692.10;2406.40;;;;;;5111105;28;20035;-72
2021/07/13 00:09:13;;;;;;;15.05;13.45;;;692.10;2406.40;;;;;;5109260;28;20028;-72
2021/07/13 00:11:39;;;;;;;15.70;13.68;;;692.10;2406.40;;;;;;5105216;28;20032;-72
2021/07/13 00:14:05;;;;;;;15.45;13.77;;;692.00;2406.40;;;;;;5093185;28;20393;-72
2021/07/13 00:16:32;;;;;;;18.15;15.02;;;692.00;2406.40;;;;;;5092753;28;20027;-72
2021/07/13 00:18:58;;;;;;;16.95;14.00;;;692.00;2406.40;;;;;;5111228;28;20410;-72
2021/07/13 00:21:24;;;;;;;16.88;14.25;;;692.00;2406.40;;;;;;5108966;28;20386;-72
2021/07/13 00:23:50;;;;;;;15.52;13.93;;;691.80;2406.40;;;;;;5108739;28;20020;-72
2021/07/13 00:26:16;;;;;;;16.35;14.55;;;691.80;2406.40;;;;;;5092954;28;20041;-72
2021/07/13 00:28:42;;;;;;;17.27;14.82;;;691.80;2406.40;;;;;;5091958;28;20016;-72
2021/07/13 00:31:08;;;;;;;17.17;14.13;;;691.80;2406.40;;;;;;5111404;28;20031;-71
2021/07/13 00:33:34;;;;;;;18.95;13.73;;;691.80;2406.40;;;;;;5111014;28;20024;-72
2021/07/13 00:36:00;;;;;;;16.10;14.25;;;691.80;2406.40;;;;;;5110974;28;20027;-72
2021/07/13 00:38:27;;;;;;;15.27;13.70;;;691.80;2432.00;;;;;;5110883;28;20127;-72
2021/07/13 00:40:53;;;;;;;14.63;13.23;;;691.80;2406.40;;;;;;5110994;28;20030;-72
2021/07/13 00:43:19;;;;;;;16.23;14.50;;;691.80;2406.40;;;;;;5111211;28;20028;-72
2021/07/13 00:45:45;;;;;;;14.98;13.57;;;691.70;2432.00;;;;;;5081680;28;20035;-72
2021/07/13 00:48:11;;;;;;;15.75;14.00;;;691.80;2432.00;;;;;;5107613;28;20042;-72
2021/07/13 00:50:37;;;;;;;18.15;14.88;;;691.70;2432.00;;;;;;5087447;28;20074;-72
2021/07/13 00:53:03;;;;;;;17.13;15.07;;;691.70;2432.00;;;;;;5095963;28;20047;-72
2021/07/13 00:55:30;;;;;;;16.65;14.93;;;691.70;2432.00;;;;;;5114465;28;20030;-71
2021/07/13 00:57:56;;;;;;;17.60;15.80;;;691.60;2432.00;;;;;;5114196;28;20028;-71
2021/07/13 01:00:23;;;;;;;15.35;13.75;;;691.70;2432.00;;;;;;5113773;28;20381;-71
2021/07/13 01:02:52;;;;;;;18.45;15.43;;;691.60;2432.00;;;;;;5114833;28;20030;-72
2021/07/13 01:05:27;;;;;;;18.70;16.80;;;691.50;2432.00;;;;;;5114417;28;20031;-72
2021/07/13 01:08:04;;;;;;;18.52;16.48;;;691.50;2432.00;;;;;;5106668;28;20026;-72
2021/07/13 01:10:58;;;;;;;18.85;16.83;;;691.40;2432.00;;;;;;5114565;28;20019;-71
2021/07/13 01:13:35;;;;;;;18.65;16.67;;;691.40;2432.00;;;;;;5103436;28;20021;-72
2021/07/13 01:16:08;;;;;;;18.75;16.77;;;691.40;2432.00;;;;;;5113671;28;20185;-72
2021/07/13 01:18:43;;;;;;;21.85;16.20;;;691.40;2432.00;;;;;;5114274;28;20019;-71
2021/07/13 01:21:26;;;;;;;20.15;15.90;;;691.30;2432.00;;;;;;5095438;28;20036;-72
2021/07/13 01:24:14;;;;;;;17.45;15.10;;;691.20;2432.00;;;;;;5092202;28;20039;-72
2021/07/13 01:26:42;;;;;;;17.92;15.88;;;691.20;2432.00;;;;;;5113933;28;20042;-72
2021/07/13 01:29:15;;;;;;;17.92;16.17;;;666.50;2432.00;;;;;;5096019;28;20020;-72
2021/07/13 01:31:43;;;;;;;20.27;18.10;;;666.50;2432.00;;;;;;5095919;28;20039;-72
2021/07/13 01:34:19;;;;;;;17.88;15.77;;;666.50;2432.00;;;;;;5095376;28;20152;-71
2021/07/13 01:36:50;;;;;;;19.48;17.33;;;691.20;2432.00;;;;;;5095611;28;20051;-71
2021/07/13 01:39:17;;;;;;;17.73;15.73;;;666.50;2432.00;;;;;;5113487;28;20027;-72
2021/07/13 01:41:47;;;;;;;22.65;17.05;;;666.50;2432.00;;;;;;5114034;28;20025;-72
2021/07/13 01:44:14;;;;;;;19.38;17.27;;;666.50;2432.00;;;;;;5113691;28;20023;-72
2021/07/13 01:46:41;;;;;;;21.02;16.67;;;666.50;2432.00;;;;;;5112880;28;20103;-72
2021/07/13 01:49:08;;;;;;;18.90;15.32;;;666.50;2432.00;;;;;;5113546;28;20027;-72
2021/07/13 01:51:35;;;;;;;23.70;17.15;;;666.40;2432.00;;;;;;5112999;28;20027;-71
2021/07/13 01:54:11;;;;;;;20.48;15.68;;;666.40;2432.00;;;;;;5112997;28;20035;-72
2021/07/13 01:56:37;;;;;;;;;;;666.40;2432.00;;;;;;5106362;28;20027;-72
2021/07/13 01:59:05;;;;;;;19.63;16.83;;;666.30;2432.00;;;;;;5112942;28;19904;-72
2021/07/13 02:01:32;;;;;;;21.27;17.10;;;666.30;2432.00;;;;;;5112300;28;20445;-71
2021/07/13 02:03:59;;;;;;;19.80;17.35;;;666.30;2432.00;;;;;;5112722;28;20034;-72
2021/07/13 02:06:25;;;;;;;18.63;16.60;;;666.20;2432.00;;;;;;5093910;28;20015;-71
2021/07/13 02:08:57;;;;;;;18.88;16.90;;;666.20;2432.00;;;;;;5112512;28;20077;-72
2021/07/13 02:11:25;;;;;;;19.42;17.27;;;666.20;2432.00;;;;;;5112127;28;20011;-71
2021/07/13 02:13:51;;;;;;;18.33;16.52;;;666.20;2432.00;;;;;;5111913;28;20056;-72
2021/07/13 02:16:19;;;;;;;18.38;16.13;;;666.20;2432.00;;;;;;5112417;28;20406;-71
2021/07/13 02:18:45;;;;;;;20.35;18.20;;;666.20;2432.00;;;;;;5112471;28;20055;-71
2021/07/13 02:21:14;;;;;;;21.17;18.50;;;666.20;2432.00;;;;;;5107160;28;20016;-71
2021/07/13 02:23:43;;;;;;;22.95;18.73;;;666.20;2432.00;;;;;;5109522;28;20032;-71
2021/07/13 02:26:15;;;;;;;20.27;17.95;;;666.20;2432.00;;;;;;5090258;28;20029;-70
2021/07/13 02:28:45;;;;;;;22.75;18.75;;;666.20;2432.00;;;;;;5111956;28;20427;-70
2021/07/13 02:31:18;;;;;;;26.17;20.80;;;666.10;2432.00;;;;;;5108311;28;20347;-70
2021/07/13 02:34:05;;;;;;;25.55;20.17;;;666.00;2432.00;;;;;;5094014;28;20102;-71
2021/07/13 02:36:35;;;;;;;26.25;20.63;;;666.00;2432.00;;;;;;5107749;28;20039;-71
2021/07/13 02:39:04;;;;;;;21.80;19.60;;;665.90;2432.00;;;;;;5106919;28;20103;-71
2021/07/13 02:41:31;;;;;;;24.73;20.50;;;665.80;2432.00;;;;;;5112183;28;20024;-71
2021/07/13 02:43:57;;;;;;;21.50;19.10;;;665.80;2432.00;;;;;;5112019;28;20352;-71
2021/07/13 02:46:26;;;;;;;21.30;19.10;;;665.70;2432.00;;;;;;5110880;28;20104;-71
2021/07/13 02:48:52;;;;;;;24.25;20.00;;;665.70;2432.00;;;;;;5111798;28;20085;-71
2021/07/13 02:51:19;;;;;;;20.00;17.83;;;665.70;2432.00;;;;;;5109035;28;20027;-70
2021/07/13 02:53:47;;;;;;;20.75;18.55;;;665.60;2432.00;;;;;;5092712;28;20047;-71
2021/07/13 02:56:14;;;;;;;20.63;18.48;;;640.90;2432.00;;;;;;5111503;28;20011;-70
2021/07/13 02:58:41;;;;;;;19.67;17.65;;;665.60;2432.00;;;;;;5092971;28;20024;-70
2021/07/13 03:01:08;;;;;;;19.83;17.75;;;640.80;2432.00;;;;;;5110971;28;20011;-71
2021/07/13 03:03:41;;;;;;;21.15;17.02;;;640.80;2432.00;;;;;;5102662;28;20103;-70
2021/07/13 03:06:08;;;;;;;19.40;16.40;;;640.80;2432.00;;;;;;5111295;28;20020;-71
2021/07/13 03:08:34;;;;;;;19.40;16.75;;;640.80;2432.00;;;;;;5110801;28;20024;-70
2021/07/13 03:11:02;;;;;;;18.63;15.15;;;640.70;2432.00;;;;;;5098668;28;20034;-71
2021/07/13 03:13:31;;;;;;;17.73;15.93;;;640.80;2432.00;;;;;;5102014;28;20027;-71
2021/07/13 03:15:57;;;;;;;18.13;15.70;;;640.70;2432.00;;;;;;5111241;28;20358;-71
2021/07/13 03:18:23;;;;;;;18.15;14.60;;;640.70;2432.00;;;;;;5111488;28;20034;-71
2021/07/13 03:20:52;;;;;;;17.85;15.55;;;640.70;2432.00;;;;;;5096243;28;20023;-71
2021/07/13 03:23:19;;;;;;;19.83;14.70;;;640.70;2432.00;;;;;;5110807;28;20027;-71
2021/07/13 03:25:47;;;;;;;18.00;15.82;;;640.70;2432.00;;;;;;5111109;28;20057;-71
2021/07/13 03:28:14;;;;;;;19.27;14.90;;;640.70;2432.00;;;;;;5110966;28;20124;-71
2021/07/13 03:30:41;;;;;;;18.27;16.08;;;640.80;2432.00;;;;;;5092991;28;20110;-71
2021/07/13 03:33:08;;;;;;;15.80;14.13;;;640.90;2432.00;;;;;;5110900;28;20030;-71
2021/07/13 03:35:34;;;;;;;16.70;15.00;;;640.80;2432.00;;;;;;5110905;28;20053;-71
2021/07/13 03:38:00;;;;;;;15.90;14.02;;;640.80;2406.40;;;;;;5092046;28;20028;-71
2021/07/13 03:40:28;;;;;;;17.15;13.55;;;640.90;2432.00;;;;;;5092773;28;20024;-71
2021/07/13 03:42:54;;;;;;;14.70;13.20;;;665.60;2432.00;;;;;;5111066;28;20054;-72
2021/07/13 03:45:21;;;;;;;17.27;14.25;;;640.90;2406.40;;;;;;5087257;28;20450;-72
2021/07/13 03:47:52;;;;;;;17.67;14.90;;;640.90;2406.40;;;;;;5092522;28;20078;-72
2021/07/13 03:50:20;;;;;;;16.80;12.88;;;665.60;2432.00;;;;;;5104529;28;20030;-71
2021/07/13 03:52:46;;;;;;;16.02;13.27;;;665.60;2406.40;;;;;;5107184;28;20043;-72
2021/07/13 03:55:13;;;;;;;16.42;12.98;;;665.60;2406.40;;;;;;5110321;28;20047;-74
2021/07/13 03:57:40;;;;;;;15.15;12.20;;;665.60;2380.80;;;;;;5092669;28;20068;-71
2021/07/13 04:00:12;;;;;;;16.30;14.05;;;665.60;2380.80;;;;;;5091001;28;20070;-72
2021/07/13 04:02:39;;;;;;;15.43;12.25;;;665.60;2380.80;;;;;;5107476;28;20020;-71
2021/07/13 04:05:05;;;;;;;13.05;11.65;;;665.60;2380.80;;;;;;5110364;28;20066;-71
2021/07/13 04:07:31;;;;;;;18.50;12.82;;;665.60;2380.80;;;;;;5110063;28;20085;-71
2021/07/13 04:09:57;;;;;;;14.60;12.30;;;665.70;2355.20;;;;;;5110587;28;20474;-71
2021/07/13 04:12:23;;;;;;;16.52;13.07;;;665.80;2329.60;;;;;;5098601;28;20039;-71
2021/07/13 04:14:48;;;;;;;14.95;13.20;;;665.80;2329.60;;;;;;5103636;28;20413;-71
2021/07/13 04:17:14;;;;;;;13.85;12.27;;;665.80;2329.60;;;;;;5092292;28;20043;-72
2021/07/13 04:19:40;;;;;;;15.85;11.65;;;665.90;2329.60;;;;;;5096365;28;20024;-71
2021/07/13 04:22:06;;;;;;;16.23;12.40;;;665.90;2304.00;;;;;;5105592;28;20031;-71
2021/07/13 04:24:32;;;;;;;16.55;12.82;;;666.10;2304.00;;;;;;5110448;28;20035;-71
2021/07/13 04:26:58;;;;;;;23.05;14.07;;;666.10;2304.00;;;;;;5106646;28;20379;-71
2021/07/13 04:29:24;;;;;;;14.38;12.27;;;666.30;2304.00;;;;;;5102612;28;20066;-71
2021/07/13 04:31:49;;;;;;;19.00;12.63;;;666.40;2278.40;;;;;;5076429;28;20059;-71
2021/07/13 04:34:15;;;;;;;15.40;12.80;;;666.40;2278.40;;;;;;5093474;28;20834;-72
2021/07/13 04:36:41;;;;;;;15.70;13.13;;;691.20;2252.80;;;;;;5113384;28;20031;-71
2021/07/13 04:39:08;;;;;;;21.35;14.75;;;691.30;2252.80;;;;;;5113617;28;20023;-71
2021/07/13 04:41:35;;;;;;;20.42;16.00;;;691.50;2227.20;;;;;;5113941;28;20012;-72
2021/07/13 04:44:01;;;;;;;12.60;11.23;;;691.60;2201.60;;;;;;5113439;28;20020;-72
2021/07/13 04:46:27;;;;;;;17.20;11.45;;;691.70;2201.60;;;;;;5094652;28;20101;-72
2021/07/13 04:48:54;;;;;;;15.27;10.98;;;691.70;2201.60;;;;;;5090115;28;20028;-71
2021/07/13 04:51:20;;;;;;;13.38;11.43;;;691.90;2176.00;;;;;;5109284;28;20028;-71
2021/07/13 04:53:46;;;;;;;18.88;10.60;;;691.90;2176.00;;;;;;5091292;28;20039;-72
2021/07/13 04:56:12;;;;;;;15.77;11.73;;;692.00;2150.40;;;;;;5106838;28;20027;-72
2021/07/13 04:58:38;;;;;;;14.45;11.00;;;692.10;2150.40;;;;;;5093927;28;20027;-72
2021/07/13 05:01:04;;;;;;;15.95;11.70;;;716.80;2176.00;;;;;;5094587;28;20015;-72
2021/07/13 05:03:30;;;;;;;15.10;10.98;;;716.90;2150.40;;;;;;5081588;28;20077;-73
2021/07/13 05:05:55;;;;;;;14.52;10.93;;;717.10;2124.80;;;;;;5109203;28;20103;-73
2021/07/13 05:08:22;;;;;;;16.58;12.48;;;717.20;2124.80;;;;;;5101149;28;20081;-73
2021/07/13 05:10:51;;;;;;;14.32;12.70;;;717.30;2099.20;;;;;;5091746;28;20024;-73
2021/07/13 05:13:17;;;;;;;19.45;13.40;;;717.40;2099.20;;;;;;5091824;28;20520;-73
2021/07/13 05:15:43;;;;;;;15.38;12.00;;;717.60;2073.60;;;;;;5097051;28;20020;-73
2021/07/13 05:18:14;;;;;;;12.40;10.65;;;717.70;2073.60;;;;;;5112288;28;20020;-73
2021/07/13 05:20:46;;;;;;;17.35;11.43;;;742.40;2073.60;;;;;;5111794;28;20035;-73
2021/07/13 05:23:12;;;;;;;15.80;11.63;;;742.60;2073.60;;;;;;5082437;28;20398;-73
2021/07/13 05:25:39;;;;;;;12.68;10.77;;;742.70;2048.00;;;;;;5093320;28;20027;-73
2021/07/13 05:28:10;;;;;;;16.45;10.52;;;742.80;2048.00;;;;;;5114559;28;20026;-73
2021/07/13 05:30:45;;;;;;;15.60;10.35;;;743.00;2048.00;;;;;;5114618;28;20027;-72
2021/07/13 05:33:12;;;;;;;15.07;10.77;;;743.10;2022.40;;;;;;5114499;28;20055;-72
2021/07/13 05:35:38;;;;;;;12.27;10.15;;;743.20;1996.80;;;;;;5095289;28;20081;-73
2021/07/13 05:38:05;;;;;;;11.32;9.00;;;743.20;1996.80;;;;;;5112877;28;20030;-73
2021/07/13 05:40:31;;;;;;;16.15;9.57;;;768.00;1996.80;;;;;;5091574;28;20073;-73
2021/07/13 05:42:57;;;;;;;14.02;10.05;;;768.20;1971.20;;;;;;5113090;28;20023;-73
2021/07/13 05:45:24;;;;;;;12.38;10.05;;;768.10;1971.20;;;;;;5112345;28;20436;-73
2021/07/13 05:47:50;;;;;;;12.20;9.27;;;768.30;1945.60;;;;;;5113362;28;20073;-73
2021/07/13 05:50:16;;;;;;;14.18;9.43;;;768.50;1945.60;;;;;;5111482;28;20043;-73
2021/07/13 05:52:42;;;;;;;10.95;9.52;;;768.70;1920.00;;;;;;5104365;28;20075;-73
2021/07/13 05:55:09;;;;;;;10.63;9.02;;;793.60;1920.00;;;;;;5105453;28;20050;-73
2021/07/13 05:57:35;;;;;;;12.70;9.07;;;793.60;1894.40;;;;;;5113058;28;20027;-73
2021/07/13 06:00:05;;;;;;;12.20;8.93;;;794.00;1868.80;;;;;;5095199;28;20023;-74
2021/07/13 06:02:31;;;;;;;9.55;8.30;;;794.10;1843.20;;;;;;5093994;28;20023;-73
2021/07/13 06:04:56;;;;;;;9.90;8.25;;;794.00;1843.20;;;;;;5112047;28;20351;-74
2021/07/13 06:07:22;;;;;;;10.85;8.85;;;794.10;1843.20;;;;;;5112200;28;20347;-73
2021/07/13 06:09:48;;;;;;;13.05;8.57;;;794.00;1843.20;;;;;;5111060;28;20016;-73
2021/07/13 06:12:13;;;;;;;10.02;8.20;;;794.20;1843.20;;;;;;5094573;28;20110;-73
2021/07/13 06:14:40;;;;;;;12.52;8.57;;;794.20;1817.60;;;;;;5094767;28;20027;-73
2021/07/13 06:17:07;;;;;;;10.18;8.57;;;794.40;1817.60;;;;;;5100817;28;20386;-73
2021/07/13 06:19:33;;;;;;;13.00;8.48;;;794.50;1792.00;;;;;;5112683;28;20015;-73
2021/07/13 06:22:00;;;;;;;12.10;8.18;;;794.40;1817.60;;;;;;5112526;28;20027;-73
2021/07/13 06:24:26;;;;;;;11.30;8.32;;;819.20;1792.00;;;;;;5112696;28;20027;-73
2021/07/13 06:26:51;;;;;;;12.77;8.80;;;819.60;1792.00;;;;;;5113301;28;20378;-73
2021/07/13 06:29:17;;;;;;;12.88;7.95;;;819.70;1766.40;;;;;;5112511;28;20018;-73
2021/07/13 06:31:43;;;;;;;10.52;9.05;;;819.70;1792.00;;;;;;5092362;28;20023;-73
2021/07/13 06:34:11;;;;;;;13.48;8.00;;;819.70;1792.00;;;;;;5112211;28;20511;-73
2021/07/13 06:36:37;;;;;;;12.48;8.50;;;819.70;1766.40;;;;;;5112788;28;20050;-73
2021/07/13 06:39:03;;;;;;;12.55;8.23;;;819.80;1766.40;;;;;;5093711;28;20015;-73
2021/07/13 06:41:29;;;;;;;15.73;8.63;;;820.00;1766.40;;;;;;5094516;28;20012;-73
2021/07/13 06:43:55;;;;;;;14.20;8.27;;;819.90;1740.80;;;;;;5093709;28;20105;-73
2021/07/13 06:46:20;;;;;;;12.32;8.45;;;820.00;1689.60;;;;;;5092984;28;20111;-73
2021/07/13 06:48:46;;;;;;;9.85;7.40;;;820.10;1689.60;;;;;;5112608;28;20459;-73
2021/07/13 06:51:12;;;;;;;9.50;7.88;;;844.80;1715.20;;;;;;5090445;28;20040;-73
2021/07/13 06:53:38;;;;;;;10.13;7.93;;;845.00;1689.60;;;;;;5111989;28;20039;-73
2021/07/13 06:56:04;;;;;;;11.88;7.47;;;845.20;1664.00;;;;;;5094124;28;20022;-73
2021/07/13 06:58:30;;;;;;;9.02;6.75;;;845.50;1638.40;;;;;;5112342;28;20436;-73
2021/07/13 07:00:55;;;;;;;8.00;6.47;;;845.60;1612.80;;;;;;5109459;28;20111;-73
2021/07/13 07:03:21;;;;;;;8.68;6.72;;;845.70;1612.80;;;;;;5110209;28;20374;-73
2021/07/13 07:05:47;;;;;;;9.55;7.30;;;870.60;1587.20;;;;;;5093203;28;20482;-72
2021/07/13 07:08:12;;;;;;;10.75;7.38;;;870.80;1561.60;;;;;;5107742;28;20032;-72
2021/07/13 07:10:38;;;;;;;16.02;7.82;;;870.80;1561.60;;;;;;5090601;28;20020;-73
2021/07/13 07:13:04;;;;;;;10.25;7.78;;;870.70;1587.20;;;;;;5112241;28;20474;-73
2021/07/13 07:15:30;;;;;;;10.80;7.68;;;871.10;1561.60;;;;;;5094205;28;20019;-73
2021/07/13 07:17:55;;;;;;;11.80;7.07;;;871.10;1536.00;;;;;;5094018;28;20020;-73
2021/07/13 07:20:26;;;;;;;11.40;7.72;;;871.10;1536.00;;;;;;5111635;28;20023;-73
2021/07/13 07:22:54;;;;;;;9.13;7.57;;;896.00;1510.40;;;;;;5104315;28;20552;-74
2021/07/13 07:25:20;;;;;;;10.02;7.32;;;871.30;1510.40;;;;;;5093223;28;20028;-73
2021/07/13 07:27:46;;;;;;;13.13;8.18;;;896.20;1484.80;;;;;;5111382;28;20019;-73
2021/07/13 07:30:13;;;;;;;10.05;7.28;;;896.30;1484.80;;;;;;5098847;28;20027;-73
2021/07/13 07:32:40;;;;;;;9.15;7.10;;;896.50;1484.80;;;;;;5092665;28;20554;-73
2021/07/13 07:35:08;;;;;;;8.95;6.75;;;896.50;1459.20;;;;;;5110789;28;20119;-73
2021/07/13 07:37:35;;;;;;;11.90;7.38;;;896.70;1459.20;;;;;;5111010;28;20027;-73
2021/07/13 07:40:02;;;;;;;9.23;7.00;;;896.70;1433.60;;;;;;5111278;28;20020;-73
2021/07/13 07:42:27;;;;;;;8.25;7.07;;;921.80;1459.20;;;;;;5111180;28;20047;-73
2021/07/13 07:44:53;;;;;;;10.73;7.35;;;922.10;1433.60;;;;;;5092700;28;20762;-73
2021/07/13 07:47:19;;;;;;;10.23;5.97;;;922.10;1433.60;;;;;;5110926;28;20111;-73
2021/07/13 07:49:45;;;;;;;10.02;7.55;;;947.20;1408.00;;;;;;5086251;28;20023;-73
2021/07/13 07:52:10;;;;;;;9.40;8.40;;;947.30;1382.40;;;;;;5086457;28;20020;-73
2021/07/13 07:54:36;;;;;;;11.95;8.35;;;947.50;1331.20;;;;;;5095909;28;20111;-74
2021/07/13 07:57:02;;;;;;;8.40;7.57;;;947.70;1356.80;;;;;;5092365;28;20534;-73
2021/07/13 07:59:28;;;;;;;6.88;6.18;;;947.80;1305.60;;;;;;5107606;28;20016;-73
2021/07/13 08:01:53;;;;;;;9.85;8.82;;;947.70;1331.20;;;;;;5095704;28;20077;-74
2021/07/13 08:04:19;;;;;;;9.65;8.02;;;947.90;1305.60;;;;;;5106003;28;20106;-74
2021/07/13 08:06:45;;;;;;;9.13;6.80;;;948.10;1305.60;;;;;;5107493;28;20019;-74
2021/07/13 08:09:11;;;;;;;10.23;6.82;;;948.10;1305.60;;;;;;5109708;28;20102;-74
2021/07/13 08:11:38;;;;;;;9.05;6.38;;;972.80;1331.20;;;;;;5109464;28;20036;-74
2021/07/13 08:14:05;;;;;;;9.98;6.72;;;948.00;1280.00;;;;;;5108087;28;20111;-73
2021/07/13 08:16:32;;;;;;;11.13;7.53;;;972.90;1305.60;;;;;;5109170;28;20012;-73
2021/07/13 08:18:58;;;;;;;8.35;7.47;;;973.00;1280.00;;;;;;5109211;28;20061;-74
2021/07/13 08:21:24;;;;;;;9.40;7.07;;;973.20;1280.00;;;;;;5087614;28;20032;-74
2021/07/13 08:23:49;;;;;;;9.18;6.57;;;973.40;1254.40;;;;;;5109072;28;20385;-74
2021/07/13 08:26:15;;;;;;;10.98;6.63;;;973.60;1254.40;;;;;;5108961;28;20091;-74
2021/07/13 08:28:41;;;;;;;8.65;7.07;;;973.50;1254.40;;;;;;5109132;28;20020;-74
2021/07/13 08:31:07;;;;;;;10.68;7.13;;;973.60;1254.40;;;;;;5102001;28;20024;-74
2021/07/13 08:33:33;;;;;;;12.15;8.48;;;998.40;1280.00;;;;;;5090879;28;20027;-74
2021/07/13 08:35:59;;;;;;;13.05;8.05;;;998.40;1280.00;;;;;;5091325;28;20135;-74
2021/07/13 08:38:25;;;;;;;11.82;9.95;;;998.40;1280.00;;;;;;5108597;28;20094;-74
2021/07/13 08:40:51;;;;;;;9.75;8.15;;;998.40;1280.00;;;;;;5090649;28;20030;-74
2021/07/13 08:43:16;;;;;;;8.95;7.55;;;998.80;1254.40;;;;;;5108871;28;20099;-74
2021/07/13 08:45:43;;;;;;;10.10;7.80;;;998.90;1254.40;;;;;;5080667;28;20479;-74
2021/07/13 08:48:12;;;;;;;13.05;11.02;;;999.20;1228.80;;;;;;5086498;28;20036;-74
2021/07/13 08:50:39;;;;;;;8.02;6.82;;;1024.10;1203.20;;;;;;5088905;28;20028;-74
2021/07/13 08:53:05;;;;;;;8.13;7.32;;;1024.10;1203.20;;;;;;5090287;28;20051;-74
2021/07/13 08:55:31;;;;;;;10.43;7.95;;;1024.40;1177.60;;;;;;5108390;28;20440;-74
2021/07/13 08:57:57;;;;;;;9.45;8.00;;;1024.50;1203.20;;;;;;5109293;28;20509;-74
2021/07/13 09:00:23;;;;;;;14.35;10.82;;;1024.80;1177.60;;;;;;5108155;28;20023;-75
2021/07/13 09:03:18;;;;;;;13.68;9.02;;;1049.60;1177.60;;;;;;5090589;28;20025;-73
2021/07/13 09:05:48;;;;;;;12.10;10.40;;;1024.90;1152.00;;;;;;5106937;28;20860;-73
2021/07/13 09:08:16;;;;;;;11.23;8.07;;;1049.60;1177.60;;;;;;5109927;28;20105;-73
2021/07/13 09:11:12;;;;;;;13.70;7.53;;;1049.60;1152.00;;;;;;5109481;28;20407;-73
2021/07/13 09:13:42;;;;;;;9.68;8.02;;;1024.90;1152.00;;;;;;5109479;28;20020;-73
2021/07/13 09:16:34;;;;;;;8.93;8.02;;;1049.80;1152.00;;;;;;5095919;28;20619;-74
2021/07/13 09:19:00;;;;;;;8.93;7.00;;;1049.70;1152.00;;;;;;5113750;28;20019;-73
2021/07/13 09:21:35;;;;;;;8.85;7.80;;;1050.20;1126.40;;;;;;5100645;28;20022;-73
2021/07/13 09:24:15;;;;;;;12.55;9.05;;;1050.30;1126.40;;;;;;5094982;28;20367;-73
2021/07/13 09:26:57;;;;;;;10.50;8.43;;;1050.30;1152.00;;;;;;5087473;28;20031;-75
2021/07/13 09:29:40;;;;;;;11.20;8.07;;;1050.50;1126.40;;;;;;5095732;28;20015;-76
2021/07/13 09:32:16;;;;;;;14.35;8.88;;;1075.20;1100.80;;;;;;5114106;28;20052;-76
2021/07/13 09:35:07;;;;;;;9.70;8.02;;;1075.20;1075.20;;;;;;5114324;28;20016;-76
2021/07/13 09:37:36;;;;;;;10.50;9.07;;;1075.50;1075.20;;;;;;5093378;28;20757;-76
2021/07/13 09:40:04;;;;;;;8.38;7.53;;;1075.60;1075.20;;;;;;5102975;28;20028;-76
2021/07/13 09:42:32;;;;;;;12.27;8.75;;;1075.50;1075.20;;;;;;5113310;28;20114;-77
2021/07/13 09:45:33;;;;;;;8.80;7.85;;;1075.60;1075.20;;;;;;5084290;28;20020;-75
2021/07/13 09:48:10;;;;;;;10.45;8.02;;;1075.80;1075.20;;;;;;5113327;28;20478;-76
2021/07/13 09:50:36;;;;;;;11.82;8.82;;;1076.00;1049.60;;;;;;5095886;28;20020;-76
2021/07/13 09:53:05;;;;;;;11.85;8.23;;;1075.90;1049.60;;;;;;5114699;28;20043;-75
2021/07/13 09:55:31;;;;;;;9.63;8.73;;;1076.00;1049.60;;;;;;5114624;28;20016;-76
2021/07/13 09:58:24;;;;;;;10.40;8.10;;;1101.00;1049.60;;;;;;5096462;28;20058;-76
2021/07/13 10:00:57;;;;;;;9.77;8.30;;;1101.10;1049.60;;;;;;5108893;28;20489;-76
2021/07/13 10:03:23;;;;;;;9.55;8.35;;;1101.00;1049.60;;;;;;5090822;28;20106;-76
2021/07/13 10:05:52;;;;;;;10.48;8.65;;;1101.30;1049.60;;;;;;5112923;28;20518;-75
2021/07/13 10:08:19;;;;;;;10.80;8.23;;;1101.60;1024.00;;;;;;5089869;28;20023;-76
2021/07/13 10:10:47;;;;;;;11.40;8.18;;;1101.60;1024.00;;;;;;5096302;28;20106;-76
2021/07/13 10:13:14;;;;;;;9.95;8.95;;;1126.60;1024.00;;;;;;5108041;28;20019;-76
2021/07/13 10:15:41;;;;;;;10.18;8.90;;;1126.60;1024.00;;;;;;5091837;28;20107;-76
2021/07/13 10:18:08;;;;;;;8.63;7.78;;;1126.60;1024.00;;;;;;5105196;28;20467;-76
2021/07/13 10:20:35;;;;;;;12.63;9.90;;;1127.00;998.40;;;;;;5096763;28;20020;-76
2021/07/13 10:23:04;;;;;;;11.30;8.43;;;1127.00;1024.00;;;;;;5100220;28;20079;-76
2021/07/13 10:25:38;;;;;;;11.90;8.65;;;1127.30;1024.00;;;;;;5091901;28;20118;-76
2021/07/13 10:28:04;;;;;;;9.15;8.20;;;1152.20;1024.00;;;;;;5101099;28;20039;-76
2021/07/13 10:30:30;;;;;;;12.25;11.05;;;1127.20;998.40;;;;;;5080642;28;20098;-76
2021/07/13 10:32:56;;;;;;;12.02;8.88;;;1152.30;998.40;;;;;;5101983;28;20787;-76
2021/07/13 10:35:29;;;;;;;10.70;9.20;;;1127.30;998.40;;;;;;5086909;28;20016;-75
2021/07/13 10:37:56;;;;;;;9.23;8.32;;;1152.10;998.40;;;;;;5112959;28;20081;-76
2021/07/13 10:40:25;;;;;;;10.85;9.75;;;1152.60;972.80;;;;;;5093241;28;20412;-77
2021/07/13 10:43:04;;;;;;;9.38;8.52;;;1152.30;947.20;;;;;;5095422;28;20444;-76
2021/07/13 10:45:44;;;;;;;12.45;9.85;;;1152.10;972.80;;;;;;5105732;28;20024;-77
2021/07/13 10:48:19;;;;;;;10.45;9.43;;;1152.10;947.20;;;;;;5089116;28;20039;-75
2021/07/13 10:50:48;;;;;;;11.23;10.13;;;1152.60;947.20;;;;;;5100959;28;20599;-76
2021/07/13 10:53:22;;;;;;;11.70;10.32;;;1177.70;921.60;;;;;;5081065;28;20100;-77
2021/07/13 10:55:52;;;;;;;12.43;11.23;;;1177.80;921.60;;;;;;5100805;28;20026;-78
2021/07/13 10:58:21;;;;;;;10.82;9.73;;;1178.10;921.60;;;;;;5096635;28;20107;-77
2021/07/13 11:03:31;;;;;;;10.13;9.13;;;1177.80;947.20;;;;;;5102063;28;20038;-77
2021/07/13 11:06:09;;;;;;;12.57;9.18;;;1178.40;896.00;;;;;;5090415;28;20027;-76
2021/07/13 11:08:41;;;;;;;11.93;9.45;;;1203.30;896.00;;;;;;5095447;28;20115;-78
2021/07/13 11:11:22;;;;;;;9.23;8.32;;;1203.20;896.00;;;;;;5114446;28;20031;-77
2021/07/13 11:13:58;;;;;;;10.38;9.38;;;1178.40;896.00;;;;;;5113873;28;20492;-76
2021/07/13 11:16:40;;;;;;;10.27;8.85;;;1203.40;896.00;;;;;;5094987;28;20031;-77
2021/07/13 11:19:16;;;;;;;10.23;9.23;;;1203.40;896.00;;;;;;5081318;28;20088;-77
2021/07/13 11:21:50;;;;;;;11.60;9.90;;;1203.40;896.00;;;;;;5092692;28;20107;-78
2021/07/13 11:24:21;;;;;;;12.43;10.00;;;1203.70;896.00;;;;;;5086216;28;20486;-78
2021/07/13 11:26:50;;;;;;;13.30;11.52;;;1203.40;896.00;;;;;;5075405;28;20040;-78
2021/07/13 11:29:18;;;;;;;10.60;9.50;;;1203.30;896.00;;;;;;5104034;28;20032;-78
2021/07/13 11:31:52;;;;;;;10.43;9.23;;;1203.20;870.40;;;;;;5103664;28;20028;-78
2021/07/13 11:34:21;;;;;;;10.18;8.45;;;1178.30;896.00;;;;;;5095331;28;20020;-79
2021/07/13 11:36:50;;;;;;;7.15;6.15;;;1203.40;870.40;;;;;;5084534;28;20038;-78
2021/07/13 11:39:30;;;;;;;9.55;8.50;;;1203.80;844.80;;;;;;5102205;28;20027;-78
2021/07/13 11:41:57;;;;;;;7.88;7.07;;;1203.90;844.80;;;;;;5089749;28;20016;-78
2021/07/13 11:44:24;;;;;;;11.02;7.70;;;1203.90;844.80;;;;;;5080887;28;20028;-78
2021/07/13 11:46:52;;;;;;;9.45;7.68;;;1204.00;844.80;;;;;;5085400;28;20069;-79
2021/07/13 11:49:20;;;;;;;10.40;7.82;;;1229.00;844.80;;;;;;5107648;28;20019;-79
2021/07/13 11:51:59;;;;;;;10.02;7.90;;;1229.10;870.40;;;;;;5086161;28;20023;-79
2021/07/13 11:54:30;;;;;;;8.48;7.75;;;1229.00;844.80;;;;;;5063018;28;20045;-79
2021/07/13 11:56:59;;;;;;;8.32;7.53;;;1229.50;844.80;;;;;;5066116;28;20514;-79
2021/07/13 11:59:28;;;;;;;12.13;8.73;;;1229.60;870.40;;;;;;5065719;28;20052;-78
2021/07/13 12:02:00;;;;;;;8.38;7.63;;;1229.50;870.40;;;;;;5063248;28;20020;-79
2021/07/13 12:04:27;;;;;;;11.20;8.95;;;1229.50;870.40;;;;;;5057104;28;20021;-79
2021/07/13 12:06:58;;;;;;;9.45;8.43;;;1229.60;870.40;;;;;;5058818;28;20376;-79
2021/07/13 12:09:28;;;;;;;8.50;7.47;;;1229.40;870.40;;;;;;5062004;28;20032;-79
2021/07/13 12:12:03;;;;;;;8.20;7.40;;;1229.30;870.40;;;;;;5063080;28;20056;-78
2021/07/13 12:14:29;;;;;;;8.93;8.00;;;1229.10;870.40;;;;;;5060821;28;20025;-79